Share

Armavir, Russia

2:42 PM MSK on April 24, 2014 (GMT +0400)
Shpakovskoye (URMT) Elev 1483 ft | 45.12 °N, 42.08 °E | Change Station

Current weather conditions updated 12 minutes ago

Mostly Cloudy
Mostly Cloudy
64 °F
Feels Like 64 °F
N
16
Wind Variable Wind from WNW
Gusts 22 mph
Sunrise 6:16 AM
Sunset 8:11 PM
Moon Waning Crescent

Today is forecast to be Much Warmer than yesterday. Rain and thunder.

Pressure 29.98 in
Visibility 6.2 miles
Clouds Mostly Cloudy 2700 ft
Dew Point 50 °F
Humidity 59%
Rainfall 0.00 in
Snow Depth Not available.
UV 4 out of 16
Pollen Not available.
Air Quality Not available.
Flu Activity Not available.
METAR URMT 241030Z 29007G10MPS 9999 VCTS BKN027CB 18/10 Q1015 NOSIG RMK QFE723 SC07

More Conditions Fewer Conditions

Pressure 29.98 in
Visibility 6.2 miles
Clouds Mostly Cloudy 2700 ft
Dew Point 50 °F
Humidity 59%
Rainfall 0.00 in
Snow Depth Not available.
UV 4 out of 16
Pollen Not available.
Air Quality Not available.
Flu Activity Not available.
METAR URMT 241030Z 29007G10MPS 9999 VCTS BKN027CB 18/10 Q1015 NOSIG RMK QFE723 SC07

More Conditions Fewer Conditions

10-Day Weather Forecast

Almanac

Astronomy

Apr. 24, 2014 Rise Set
Actual Time 6:16 AM MSK 8:11 PM MSK
Civil Twilight 5:44 AM MSK 8:43 PM MSK
Nautical Twilight 5:06 AM MSK 9:22 PM MSK
Astronomical Twilight 4:24 AM MSK 10:04 PM MSK
Moon 3:28 AM MSK 2:49 PM MSK
Length of Visible Light 14h 58m
Length of Day
13h 55m
Tomorrow will be 2m 51s longer.
Waning Crescent, 27% of the Moon is Illuminated
Today
Waning Crescent
Apr 29
New
May 6
First Quarter
May 14
Full
May 21
Last Quarter

Yesterday's Extremes

Country Highs Country Lows

Community

  • Stacked
    Stacked
  • clouds approaching Red Sox Nation
    clouds approaching Red Sox Nation
  • Balance
    Balance
  • Nestled In
    Nestled In
  • Stunning Sunrise
    Stunning Sunrise

WunderPhotos

Upload Photos

1,704,584 photos uploaded!

WunderBlogs® & News

Nearby

Snow Depth

Not available.

Coastal Water Temperatures

Place Temperature
No Stations Reporting

Earthquake Activity

City Distance Mag. Time & Date
No recent earthquake activity has been reported nearby.
Minimum magnitude displayed is 2.5.

Nearby Weather Stations

There are no personal weather stations in this area.

What do you think?

We're not finished. Please let us know what you like, what you don't like, and what you are still missing.